sensor_id;sensor_type;location;lat;lon;timestamp;P1;durP1;ratioP1;P2;durP2;ratioP2
63259;SDS011;49390;51.380;0.098;2023-03-14T00:01:20;21.65;;;4.47;;
63259;SDS011;49390;51.380;0.098;2023-03-14T00:03:49;23.27;;;4.20;;
63259;SDS011;49390;51.380;0.098;2023-03-14T00:06:17;22.17;;;4.15;;
63259;SDS011;49390;51.380;0.098;2023-03-14T00:08:46;18.02;;;4.35;;
63259;SDS011;49390;51.380;0.098;2023-03-14T00:11:15;21.75;;;4.70;;
63259;SDS011;49390;51.380;0.098;2023-03-14T00:13:51;19.40;;;4.50;;
63259;SDS011;49390;51.380;0.098;2023-03-14T00:16:19;19.92;;;4.97;;
63259;SDS011;49390;51.380;0.098;2023-03-14T00:18:47;18.25;;;4.38;;
63259;SDS011;49390;51.380;0.098;2023-03-14T00:21:15;18.35;;;3.75;;
63259;SDS011;49390;51.380;0.098;2023-03-14T00:23:44;19.35;;;3.88;;
63259;SDS011;49390;51.380;0.098;2023-03-14T00:26:16;18.50;;;4.03;;
63259;SDS011;49390;51.380;0.098;2023-03-14T00:28:51;19.98;;;4.65;;
63259;SDS011;49390;51.380;0.098;2023-03-14T00:31:20;21.90;;;4.57;;
63259;SDS011;49390;51.380;0.098;2023-03-14T00:33:51;14.23;;;3.70;;
63259;SDS011;49390;51.380;0.098;2023-03-14T00:36:20;12.68;;;3.38;;
63259;SDS011;49390;51.380;0.098;2023-03-14T00:38:49;10.23;;;3.28;;
63259;SDS011;49390;51.380;0.098;2023-03-14T00:41:22;9.27;;;3.00;;
63259;SDS011;49390;51.380;0.098;2023-03-14T00:43:51;10.70;;;2.72;;
63259;SDS011;49390;51.380;0.098;2023-03-14T00:46:19;9.07;;;2.50;;
63259;SDS011;49390;51.380;0.098;2023-03-14T00:48:48;9.93;;;3.30;;
63259;SDS011;49390;51.380;0.098;2023-03-14T00:51:16;8.27;;;2.78;;
63259;SDS011;49390;51.380;0.098;2023-03-14T00:53:44;11.20;;;2.50;;
63259;SDS011;49390;51.380;0.098;2023-03-14T00:56:12;9.88;;;2.80;;
63259;SDS011;49390;51.380;0.098;2023-03-14T00:58:40;9.20;;;2.47;;
63259;SDS011;49390;51.380;0.098;2023-03-14T01:01:17;10.65;;;3.22;;
63259;SDS011;49390;51.380;0.098;2023-03-14T01:03:46;9.85;;;2.60;;
63259;SDS011;49390;51.380;0.098;2023-03-14T01:06:16;9.32;;;2.50;;
63259;SDS011;49390;51.380;0.098;2023-03-14T01:08:49;9.77;;;2.50;;
63259;SDS011;49390;51.380;0.098;2023-03-14T01:11:38;11.20;;;2.92;;
63259;SDS011;49390;51.380;0.098;2023-03-14T01:14:06;8.02;;;3.50;;
63259;SDS011;49390;51.380;0.098;2023-03-14T01:16:34;10.48;;;2.47;;
63259;SDS011;49390;51.380;0.098;2023-03-14T01:19:02;9.43;;;2.55;;
63259;SDS011;49390;51.380;0.098;2023-03-14T01:21:31;6.15;;;2.60;;
63259;SDS011;49390;51.380;0.098;2023-03-14T01:24:04;5.45;;;2.20;;
63259;SDS011;49390;51.380;0.098;2023-03-14T01:26:33;5.20;;;1.90;;
63259;SDS011;49390;51.380;0.098;2023-03-14T01:29:06;2.30;;;1.30;;
63259;SDS011;49390;51.380;0.098;2023-03-14T01:31:37;4.20;;;1.52;;
63259;SDS011;49390;51.380;0.098;2023-03-14T01:34:06;3.83;;;1.33;;
63259;SDS011;49390;51.380;0.098;2023-03-14T01:36:34;1.38;;;1.13;;
63259;SDS011;49390;51.380;0.098;2023-03-14T01:39:02;2.45;;;1.17;;
63259;SDS011;49390;51.380;0.098;2023-03-14T01:41:30;2.95;;;1.30;;
63259;SDS011;49390;51.380;0.098;2023-03-14T01:44:00;1.55;;;1.08;;
63259;SDS011;49390;51.380;0.098;2023-03-14T01:46:38;2.72;;;1.40;;
63259;SDS011;49390;51.380;0.098;2023-03-14T01:51:57;2.00;;;1.20;;
63259;SDS011;49390;51.380;0.098;2023-03-14T01:54:37;1.95;;;1.30;;
63259;SDS011;49390;51.380;0.098;2023-03-14T01:59:45;1.10;;;0.82;;
63259;SDS011;49390;51.380;0.098;2023-03-14T02:02:18;1.25;;;1.10;;
63259;SDS011;49390;51.380;0.098;2023-03-14T02:04:47;1.10;;;1.00;;
63259;SDS011;49390;51.380;0.098;2023-03-14T02:07:22;1.20;;;1.10;;
63259;SDS011;49390;51.380;0.098;2023-03-14T02:10:13;2.65;;;1.35;;
63259;SDS011;49390;51.380;0.098;2023-03-14T02:12:43;1.58;;;1.05;;
63259;SDS011;49390;51.380;0.098;2023-03-14T02:15:30;2.25;;;1.30;;
63259;SDS011;49390;51.380;0.098;2023-03-14T02:18:13;1.80;;;1.40;;
63259;SDS011;49390;51.380;0.098;2023-03-14T02:23:57;2.28;;;1.48;;
63259;SDS011;49390;51.380;0.098;2023-03-14T02:29:46;3.42;;;1.60;;
63259;SDS011;49390;51.380;0.098;2023-03-14T02:32:19;4.38;;;1.50;;
63259;SDS011;49390;51.380;0.098;2023-03-14T02:34:59;3.20;;;1.90;;
63259;SDS011;49390;51.380;0.098;2023-03-14T02:37:35;2.47;;;1.55;;
63259;SDS011;49390;51.380;0.098;2023-03-14T02:40:08;3.70;;;1.70;;
63259;SDS011;49390;51.380;0.098;2023-03-14T02:42:39;4.55;;;1.65;;
63259;SDS011;49390;51.380;0.098;2023-03-14T02:48:17;2.33;;;1.70;;
63259;SDS011;49390;51.380;0.098;2023-03-14T02:50:41;2.00;;;1.35;;
63259;SDS011;49390;51.380;0.098;2023-03-14T02:53:11;3.40;;;1.40;;
63259;SDS011;49390;51.380;0.098;2023-03-14T02:55:44;3.15;;;1.15;;
63259;SDS011;49390;51.380;0.098;2023-03-14T02:58:15;2.20;;;1.77;;
63259;SDS011;49390;51.380;0.098;2023-03-14T03:03:15;2.15;;;1.13;;
63259;SDS011;49390;51.380;0.098;2023-03-14T03:05:43;3.42;;;1.50;;
63259;SDS011;49390;51.380;0.098;2023-03-14T03:08:15;2.88;;;1.40;;
63259;SDS011;49390;51.380;0.098;2023-03-14T03:10:42;2.60;;;1.30;;
63259;SDS011;49390;51.380;0.098;2023-03-14T03:13:10;3.33;;;1.20;;
63259;SDS011;49390;51.380;0.098;2023-03-14T03:15:39;3.10;;;1.25;;
63259;SDS011;49390;51.380;0.098;2023-03-14T03:18:08;2.42;;;1.50;;
63259;SDS011;49390;51.380;0.098;2023-03-14T03:20:36;4.47;;;1.73;;
63259;SDS011;49390;51.380;0.098;2023-03-14T03:23:05;4.70;;;1.98;;
63259;SDS011;49390;51.380;0.098;2023-03-14T03:25:32;4.28;;;1.50;;
63259;SDS011;49390;51.380;0.098;2023-03-14T03:28:04;1.70;;;1.20;;
63259;SDS011;49390;51.380;0.098;2023-03-14T03:30:40;2.78;;;1.05;;
63259;SDS011;49390;51.380;0.098;2023-03-14T03:33:10;3.60;;;1.38;;
63259;SDS011;49390;51.380;0.098;2023-03-14T03:35:47;1.77;;;1.30;;
63259;SDS011;49390;51.380;0.098;2023-03-14T03:38:26;3.97;;;1.40;;
63259;SDS011;49390;51.380;0.098;2023-03-14T03:43:29;3.85;;;1.25;;
63259;SDS011;49390;51.380;0.098;2023-03-14T03:46:02;2.90;;;1.50;;
63259;SDS011;49390;51.380;0.098;2023-03-14T03:48:34;2.90;;;1.38;;
63259;SDS011;49390;51.380;0.098;2023-03-14T03:51:04;1.63;;;1.23;;
63259;SDS011;49390;51.380;0.098;2023-03-14T03:53:34;2.10;;;1.20;;
63259;SDS011;49390;51.380;0.098;2023-03-14T03:56:06;3.47;;;1.48;;
63259;SDS011;49390;51.380;0.098;2023-03-14T03:58:35;2.88;;;1.30;;
63259;SDS011;49390;51.380;0.098;2023-03-14T04:01:06;2.17;;;1.40;;
63259;SDS011;49390;51.380;0.098;2023-03-14T04:03:36;1.83;;;1.25;;
63259;SDS011;49390;51.380;0.098;2023-03-14T04:06:08;2.40;;;1.85;;
63259;SDS011;49390;51.380;0.098;2023-03-14T04:08:39;2.13;;;1.23;;
63259;SDS011;49390;51.380;0.098;2023-03-14T04:11:36;4.15;;;1.30;;
63259;SDS011;49390;51.380;0.098;2023-03-14T04:14:14;2.17;;;1.17;;
63259;SDS011;49390;51.380;0.098;2023-03-14T04:16:43;3.75;;;1.30;;
63259;SDS011;49390;51.380;0.098;2023-03-14T04:19:17;2.95;;;1.30;;
63259;SDS011;49390;51.380;0.098;2023-03-14T04:21:45;2.92;;;1.17;;
63259;SDS011;49390;51.380;0.098;2023-03-14T04:24:18;2.42;;;1.17;;
63259;SDS011;49390;51.380;0.098;2023-03-14T04:26:48;1.98;;;1.25;;
63259;SDS011;49390;51.380;0.098;2023-03-14T04:29:16;4.03;;;1.33;;
63259;SDS011;49390;51.380;0.098;2023-03-14T04:31:46;2.85;;;0.90;;
63259;SDS011;49390;51.380;0.098;2023-03-14T04:34:14;1.35;;;1.10;;
63259;SDS011;49390;51.380;0.098;2023-03-14T04:36:48;1.52;;;1.30;;
63259;SDS011;49390;51.380;0.098;2023-03-14T04:39:21;4.38;;;1.40;;
63259;SDS011;49390;51.380;0.098;2023-03-14T04:41:58;5.10;;;1.40;;
63259;SDS011;49390;51.380;0.098;2023-03-14T04:44:26;6.05;;;1.42;;
63259;SDS011;49390;51.380;0.098;2023-03-14T04:46:55;4.35;;;1.50;;
63259;SDS011;49390;51.380;0.098;2023-03-14T04:51:53;1.73;;;1.30;;
63259;SDS011;49390;51.380;0.098;2023-03-14T04:54:24;5.07;;;2.10;;
63259;SDS011;49390;51.380;0.098;2023-03-14T04:56:56;3.30;;;1.70;;
63259;SDS011;49390;51.380;0.098;2023-03-14T04:59:26;4.60;;;1.67;;
63259;SDS011;49390;51.380;0.098;2023-03-14T05:01:57;4.75;;;1.70;;
63259;SDS011;49390;51.380;0.098;2023-03-14T05:04:58;4.70;;;1.58;;
63259;SDS011;49390;51.380;0.098;2023-03-14T05:07:44;5.18;;;1.50;;
63259;SDS011;49390;51.380;0.098;2023-03-14T05:10:42;6.53;;;1.65;;
63259;SDS011;49390;51.380;0.098;2023-03-14T05:13:15;5.18;;;1.52;;
63259;SDS011;49390;51.380;0.098;2023-03-14T05:16:03;2.50;;;1.50;;
63259;SDS011;49390;51.380;0.098;2023-03-14T05:19:07;4.30;;;1.67;;
63259;SDS011;49390;51.380;0.098;2023-03-14T05:21:46;4.43;;;1.40;;
63259;SDS011;49390;51.380;0.098;2023-03-14T05:24:33;5.28;;;1.70;;
63259;SDS011;49390;51.380;0.098;2023-03-14T05:27:10;4.40;;;1.70;;
63259;SDS011;49390;51.380;0.098;2023-03-14T05:30:03;5.20;;;1.58;;
63259;SDS011;49390;51.380;0.098;2023-03-14T05:32:35;6.47;;;1.65;;
63259;SDS011;49390;51.380;0.098;2023-03-14T05:35:32;8.23;;;1.65;;
63259;SDS011;49390;51.380;0.098;2023-03-14T05:38:19;5.00;;;1.60;;
63259;SDS011;49390;51.380;0.098;2023-03-14T05:41:08;6.00;;;1.88;;
63259;SDS011;49390;51.380;0.098;2023-03-14T05:43:57;6.30;;;1.95;;
63259;SDS011;49390;51.380;0.098;2023-03-14T05:46:53;2.95;;;1.20;;
63259;SDS011;49390;51.380;0.098;2023-03-14T05:49:45;4.85;;;1.63;;
63259;SDS011;49390;51.380;0.098;2023-03-14T05:52:31;4.53;;;1.58;;
63259;SDS011;49390;51.380;0.098;2023-03-14T05:55:15;5.03;;;1.60;;
63259;SDS011;49390;51.380;0.098;2023-03-14T05:58:09;5.45;;;1.98;;
63259;SDS011;49390;51.380;0.098;2023-03-14T06:01:03;6.23;;;1.60;;
63259;SDS011;49390;51.380;0.098;2023-03-14T06:04:01;4.35;;;1.45;;
63259;SDS011;49390;51.380;0.098;2023-03-14T06:06:29;4.18;;;1.40;;
63259;SDS011;49390;51.380;0.098;2023-03-14T06:08:59;5.38;;;1.70;;
63259;SDS011;49390;51.380;0.098;2023-03-14T06:11:29;5.43;;;1.73;;
63259;SDS011;49390;51.380;0.098;2023-03-14T06:13:57;6.25;;;1.83;;
63259;SDS011;49390;51.380;0.098;2023-03-14T06:16:25;5.68;;;1.50;;
63259;SDS011;49390;51.380;0.098;2023-03-14T06:18:55;5.60;;;1.70;;
63259;SDS011;49390;51.380;0.098;2023-03-14T06:21:24;6.10;;;1.67;;
63259;SDS011;49390;51.380;0.098;2023-03-14T06:23:52;3.42;;;1.40;;
63259;SDS011;49390;51.380;0.098;2023-03-14T06:26:22;5.80;;;1.88;;
63259;SDS011;49390;51.380;0.098;2023-03-14T06:28:50;7.70;;;1.92;;
63259;SDS011;49390;51.380;0.098;2023-03-14T06:31:19;4.40;;;1.60;;
63259;SDS011;49390;51.380;0.098;2023-03-14T06:33:56;7.93;;;2.25;;
63259;SDS011;49390;51.380;0.098;2023-03-14T06:36:28;4.10;;;1.85;;
63259;SDS011;49390;51.380;0.098;2023-03-14T06:38:57;6.40;;;1.88;;
63259;SDS011;49390;51.380;0.098;2023-03-14T06:41:27;4.10;;;2.00;;
63259;SDS011;49390;51.380;0.098;2023-03-14T06:43:57;5.85;;;1.70;;
63259;SDS011;49390;51.380;0.098;2023-03-14T06:46:26;7.38;;;1.67;;
63259;SDS011;49390;51.380;0.098;2023-03-14T06:48:54;5.07;;;1.48;;
63259;SDS011;49390;51.380;0.098;2023-03-14T06:51:22;3.78;;;1.35;;
63259;SDS011;49390;51.380;0.098;2023-03-14T06:53:51;8.20;;;1.83;;
63259;SDS011;49390;51.380;0.098;2023-03-14T06:56:25;6.30;;;2.08;;
63259;SDS011;49390;51.380;0.098;2023-03-14T06:58:54;13.85;;;2.42;;
63259;SDS011;49390;51.380;0.098;2023-03-14T07:01:25;5.78;;;1.70;;
63259;SDS011;49390;51.380;0.098;2023-03-14T07:04:01;6.28;;;1.70;;
63259;SDS011;49390;51.380;0.098;2023-03-14T07:06:29;6.80;;;1.63;;
63259;SDS011;49390;51.380;0.098;2023-03-14T07:08:57;3.75;;;1.70;;
63259;SDS011;49390;51.380;0.098;2023-03-14T07:11:26;4.82;;;2.10;;
63259;SDS011;49390;51.380;0.098;2023-03-14T07:13:54;3.33;;;1.52;;
63259;SDS011;49390;51.380;0.098;2023-03-14T07:16:22;9.43;;;1.65;;
63259;SDS011;49390;51.380;0.098;2023-03-14T07:18:53;2.15;;;1.35;;
63259;SDS011;49390;51.380;0.098;2023-03-14T07:21:21;6.43;;;1.93;;
63259;SDS011;49390;51.380;0.098;2023-03-14T07:23:52;8.38;;;1.80;;
63259;SDS011;49390;51.380;0.098;2023-03-14T07:26:21;7.00;;;2.10;;
63259;SDS011;49390;51.380;0.098;2023-03-14T07:28:51;9.27;;;1.83;;
63259;SDS011;49390;51.380;0.098;2023-03-14T07:31:20;9.18;;;1.88;;
63259;SDS011;49390;51.380;0.098;2023-03-14T07:33:48;6.18;;;1.45;;
63259;SDS011;49390;51.380;0.098;2023-03-14T07:36:17;4.10;;;1.77;;
63259;SDS011;49390;51.380;0.098;2023-03-14T07:38:46;9.05;;;2.13;;
63259;SDS011;49390;51.380;0.098;2023-03-14T07:41:29;5.72;;;1.80;;
63259;SDS011;49390;51.380;0.098;2023-03-14T07:44:24;7.32;;;4.03;;
63259;SDS011;49390;51.380;0.098;2023-03-14T07:46:55;3.13;;;1.60;;
63259;SDS011;49390;51.380;0.098;2023-03-14T07:49:23;4.38;;;1.98;;
63259;SDS011;49390;51.380;0.098;2023-03-14T07:51:51;4.47;;;1.50;;
63259;SDS011;49390;51.380;0.098;2023-03-14T07:54:19;5.65;;;1.60;;
63259;SDS011;49390;51.380;0.098;2023-03-14T07:56:47;6.82;;;2.03;;
63259;SDS011;49390;51.380;0.098;2023-03-14T07:59:15;1.80;;;1.40;;
63259;SDS011;49390;51.380;0.098;2023-03-14T08:01:43;4.80;;;1.70;;
63259;SDS011;49390;51.380;0.098;2023-03-14T08:04:11;3.80;;;1.67;;
63259;SDS011;49390;51.380;0.098;2023-03-14T08:06:39;5.88;;;1.90;;
63259;SDS011;49390;51.380;0.098;2023-03-14T08:09:09;6.45;;;1.80;;
63259;SDS011;49390;51.380;0.098;2023-03-14T08:11:38;3.72;;;1.70;;
63259;SDS011;49390;51.380;0.098;2023-03-14T08:14:05;5.15;;;1.70;;
63259;SDS011;49390;51.380;0.098;2023-03-14T08:16:33;3.50;;;1.45;;
63259;SDS011;49390;51.380;0.098;2023-03-14T08:19:03;4.25;;;1.60;;
63259;SDS011;49390;51.380;0.098;2023-03-14T08:21:31;2.40;;;1.50;;
63259;SDS011;49390;51.380;0.098;2023-03-14T08:23:59;3.97;;;1.52;;
63259;SDS011;49390;51.380;0.098;2023-03-14T08:26:28;3.08;;;1.58;;
63259;SDS011;49390;51.380;0.098;2023-03-14T08:28:56;3.10;;;1.63;;
63259;SDS011;49390;51.380;0.098;2023-03-14T08:31:24;2.17;;;1.23;;
63259;SDS011;49390;51.380;0.098;2023-03-14T08:33:52;2.58;;;1.35;;
63259;SDS011;49390;51.380;0.098;2023-03-14T08:36:22;3.42;;;1.60;;
63259;SDS011;49390;51.380;0.098;2023-03-14T08:38:50;2.50;;;1.30;;
63259;SDS011;49390;51.380;0.098;2023-03-14T08:41:19;2.22;;;1.48;;
63259;SDS011;49390;51.380;0.098;2023-03-14T08:43:49;3.03;;;1.63;;
63259;SDS011;49390;51.380;0.098;2023-03-14T08:46:17;4.20;;;1.70;;
63259;SDS011;49390;51.380;0.098;2023-03-14T08:48:45;4.28;;;2.00;;
63259;SDS011;49390;51.380;0.098;2023-03-14T08:51:14;2.92;;;2.20;;
63259;SDS011;49390;51.380;0.098;2023-03-14T08:53:42;4.65;;;2.03;;
63259;SDS011;49390;51.380;0.098;2023-03-14T08:56:10;6.10;;;2.90;;
63259;SDS011;49390;51.380;0.098;2023-03-14T08:58:38;5.35;;;2.47;;
63259;SDS011;49390;51.380;0.098;2023-03-14T09:01:07;3.03;;;1.90;;
63259;SDS011;49390;51.380;0.098;2023-03-14T09:03:37;3.55;;;1.92;;
63259;SDS011;49390;51.380;0.098;2023-03-14T09:06:06;3.05;;;1.80;;
63259;SDS011;49390;51.380;0.098;2023-03-14T09:08:36;1.70;;;1.48;;
63259;SDS011;49390;51.380;0.098;2023-03-14T09:11:07;2.25;;;1.55;;
63259;SDS011;49390;51.380;0.098;2023-03-14T09:13:36;2.92;;;1.70;;
63259;SDS011;49390;51.380;0.098;2023-03-14T09:16:04;1.48;;;1.20;;
63259;SDS011;49390;51.380;0.098;2023-03-14T09:18:33;1.63;;;1.08;;
63259;SDS011;49390;51.380;0.098;2023-03-14T09:21:29;2.22;;;1.10;;
63259;SDS011;49390;51.380;0.098;2023-03-14T09:23:57;2.10;;;0.90;;
63259;SDS011;49390;51.380;0.098;2023-03-14T09:26:25;1.25;;;1.10;;
63259;SDS011;49390;51.380;0.098;2023-03-14T09:28:53;1.75;;;1.13;;
63259;SDS011;49390;51.380;0.098;2023-03-14T09:31:23;3.13;;;1.45;;
63259;SDS011;49390;51.380;0.098;2023-03-14T09:33:51;3.15;;;1.60;;
63259;SDS011;49390;51.380;0.098;2023-03-14T09:36:19;3.38;;;1.45;;
63259;SDS011;49390;51.380;0.098;2023-03-14T09:38:47;1.45;;;1.17;;
63259;SDS011;49390;51.380;0.098;2023-03-14T09:41:17;4.72;;;1.27;;
63259;SDS011;49390;51.380;0.098;2023-03-14T09:44:09;2.00;;;1.30;;
63259;SDS011;49390;51.380;0.098;2023-03-14T09:46:52;6.10;;;2.50;;
63259;SDS011;49390;51.380;0.098;2023-03-14T09:49:27;2.75;;;1.50;;
63259;SDS011;49390;51.380;0.098;2023-03-14T09:51:59;3.03;;;1.67;;
63259;SDS011;49390;51.380;0.098;2023-03-14T09:54:44;2.67;;;1.60;;
63259;SDS011;49390;51.380;0.098;2023-03-14T09:57:16;2.90;;;1.80;;
63259;SDS011;49390;51.380;0.098;2023-03-14T09:59:46;5.50;;;2.03;;
63259;SDS011;49390;51.380;0.098;2023-03-14T10:02:22;3.92;;;1.80;;
63259;SDS011;49390;51.380;0.098;2023-03-14T10:04:52;4.65;;;1.98;;
63259;SDS011;49390;51.380;0.098;2023-03-14T10:07:25;5.60;;;2.15;;
63259;SDS011;49390;51.380;0.098;2023-03-14T10:09:59;5.47;;;2.05;;
63259;SDS011;49390;51.380;0.098;2023-03-14T10:12:34;6.47;;;2.13;;
63259;SDS011;49390;51.380;0.098;2023-03-14T10:15:05;4.88;;;2.40;;
63259;SDS011;49390;51.380;0.098;2023-03-14T10:17:43;5.30;;;2.70;;
63259;SDS011;49390;51.380;0.098;2023-03-14T10:28:48;7.55;;;2.50;;
63259;SDS011;49390;51.380;0.098;2023-03-14T10:31:24;7.50;;;2.38;;
63259;SDS011;49390;51.380;0.098;2023-03-14T10:33:58;6.63;;;2.10;;
63259;SDS011;49390;51.380;0.098;2023-03-14T10:36:31;4.28;;;2.00;;
63259;SDS011;49390;51.380;0.098;2023-03-14T10:41:48;4.43;;;1.90;;
63259;SDS011;49390;51.380;0.098;2023-03-14T10:44:24;9.32;;;2.72;;
63259;SDS011;49390;51.380;0.098;2023-03-14T10:46:56;8.82;;;2.28;;
63259;SDS011;49390;51.380;0.098;2023-03-14T10:49:28;4.40;;;1.95;;
63259;SDS011;49390;51.380;0.098;2023-03-14T10:54:46;4.55;;;2.10;;
63259;SDS011;49390;51.380;0.098;2023-03-14T10:57:19;5.63;;;1.90;;
63259;SDS011;49390;51.380;0.098;2023-03-14T10:59:48;5.80;;;1.90;;
63259;SDS011;49390;51.380;0.098;2023-03-14T11:26:54;4.28;;;1.75;;
63259;SDS011;49390;51.380;0.098;2023-03-14T11:32:02;5.28;;;1.83;;
63259;SDS011;49390;51.380;0.098;2023-03-14T11:34:42;8.55;;;2.17;;
63259;SDS011;49390;51.380;0.098;2023-03-14T11:40:14;5.05;;;1.90;;
63259;SDS011;49390;51.380;0.098;2023-03-14T11:42:54;6.82;;;1.95;;
63259;SDS011;49390;51.380;0.098;2023-03-14T11:45:42;4.00;;;2.13;;
63259;SDS011;49390;51.380;0.098;2023-03-14T11:51:04;7.05;;;3.35;;
63259;SDS011;49390;51.380;0.098;2023-03-14T11:53:48;5.47;;;2.20;;
63259;SDS011;49390;51.380;0.098;2023-03-14T12:05:20;4.20;;;2.00;;
63259;SDS011;49390;51.380;0.098;2023-03-14T12:10:37;8.13;;;2.65;;
63259;SDS011;49390;51.380;0.098;2023-03-14T12:13:10;5.75;;;1.92;;
63259;SDS011;49390;51.380;0.098;2023-03-14T12:15:41;6.00;;;2.40;;
63259;SDS011;49390;51.380;0.098;2023-03-14T12:18:30;5.35;;;2.03;;
63259;SDS011;49390;51.380;0.098;2023-03-14T12:21:07;7.28;;;2.45;;
63259;SDS011;49390;51.380;0.098;2023-03-14T12:23:44;6.00;;;2.35;;
63259;SDS011;49390;51.380;0.098;2023-03-14T12:26:20;5.97;;;2.20;;
63259;SDS011;49390;51.380;0.098;2023-03-14T12:47:53;6.28;;;2.20;;
63259;SDS011;49390;51.380;0.098;2023-03-14T12:50:32;4.13;;;1.83;;
63259;SDS011;49390;51.380;0.098;2023-03-14T12:53:29;7.30;;;1.98;;
63259;SDS011;49390;51.380;0.098;2023-03-14T13:02:02;5.05;;;1.95;;
63259;SDS011;49390;51.380;0.098;2023-03-14T13:04:34;6.65;;;1.80;;
63259;SDS011;49390;51.380;0.098;2023-03-14T13:07:11;5.60;;;1.90;;
63259;SDS011;49390;51.380;0.098;2023-03-14T13:15:25;5.10;;;1.83;;
63259;SDS011;49390;51.380;0.098;2023-03-14T13:18:07;5.47;;;1.98;;
63259;SDS011;49390;51.380;0.098;2023-03-14T13:20:48;3.40;;;1.98;;
63259;SDS011;49390;51.380;0.098;2023-03-14T13:23:30;4.18;;;1.90;;
63259;SDS011;49390;51.380;0.098;2023-03-14T13:26:00;4.75;;;1.75;;
63259;SDS011;49390;51.380;0.098;2023-03-14T13:28:29;4.40;;;1.90;;
63259;SDS011;49390;51.380;0.098;2023-03-14T13:33:28;3.38;;;1.50;;
63259;SDS011;49390;51.380;0.098;2023-03-14T13:38:27;2.75;;;1.50;;
63259;SDS011;49390;51.380;0.098;2023-03-14T13:40:57;3.58;;;1.40;;
63259;SDS011;49390;51.380;0.098;2023-03-14T13:46:10;4.53;;;1.73;;
63259;SDS011;49390;51.380;0.098;2023-03-14T13:48:43;3.03;;;1.48;;
63259;SDS011;49390;51.380;0.098;2023-03-14T13:51:16;3.58;;;1.70;;
63259;SDS011;49390;51.380;0.098;2023-03-14T13:53:49;2.72;;;1.60;;
63259;SDS011;49390;51.380;0.098;2023-03-14T13:56:23;5.05;;;1.95;;
63259;SDS011;49390;51.380;0.098;2023-03-14T14:01:26;7.22;;;2.13;;
63259;SDS011;49390;51.380;0.098;2023-03-14T14:04:05;5.55;;;1.75;;
63259;SDS011;49390;51.380;0.098;2023-03-14T14:09:12;5.28;;;1.80;;
63259;SDS011;49390;51.380;0.098;2023-03-14T14:11:48;4.10;;;1.40;;
63259;SDS011;49390;51.380;0.098;2023-03-14T14:18:07;7.18;;;1.70;;
63259;SDS011;49390;51.380;0.098;2023-03-14T14:20:32;4.70;;;1.85;;
63259;SDS011;49390;51.380;0.098;2023-03-14T14:23:12;5.47;;;1.65;;
63259;SDS011;49390;51.380;0.098;2023-03-14T14:25:52;6.20;;;1.70;;
63259;SDS011;49390;51.380;0.098;2023-03-14T14:28:25;4.68;;;1.85;;
63259;SDS011;49390;51.380;0.098;2023-03-14T14:31:20;2.85;;;1.55;;
63259;SDS011;49390;51.380;0.098;2023-03-14T14:36:24;3.78;;;1.42;;
63259;SDS011;49390;51.380;0.098;2023-03-14T14:41:48;3.47;;;1.70;;
63259;SDS011;49390;51.380;0.098;2023-03-14T14:44:38;4.63;;;1.65;;
63259;SDS011;49390;51.380;0.098;2023-03-14T14:47:05;5.47;;;2.20;;
63259;SDS011;49390;51.380;0.098;2023-03-14T14:49:33;4.43;;;1.70;;
63259;SDS011;49390;51.380;0.098;2023-03-14T14:52:02;3.10;;;1.65;;
63259;SDS011;49390;51.380;0.098;2023-03-14T14:54:43;4.03;;;1.70;;
63259;SDS011;49390;51.380;0.098;2023-03-14T14:57:17;3.50;;;1.90;;
63259;SDS011;49390;51.380;0.098;2023-03-14T14:59:48;4.10;;;1.80;;
63259;SDS011;49390;51.380;0.098;2023-03-14T15:02:25;4.35;;;1.70;;
63259;SDS011;49390;51.380;0.098;2023-03-14T15:05:13;3.42;;;1.58;;
63259;SDS011;49390;51.380;0.098;2023-03-14T15:07:43;3.57;;;1.63;;
63259;SDS011;49390;51.380;0.098;2023-03-14T15:10:12;3.47;;;1.80;;
63259;SDS011;49390;51.380;0.098;2023-03-14T15:12:42;4.63;;;1.70;;
63259;SDS011;49390;51.380;0.098;2023-03-14T15:15:11;5.13;;;1.90;;
63259;SDS011;49390;51.380;0.098;2023-03-14T15:17:39;5.55;;;1.85;;
63259;SDS011;49390;51.380;0.098;2023-03-14T15:20:10;3.60;;;2.13;;
63259;SDS011;49390;51.380;0.098;2023-03-14T15:22:40;3.70;;;1.50;;
63259;SDS011;49390;51.380;0.098;2023-03-14T15:25:12;3.92;;;1.30;;
63259;SDS011;49390;51.380;0.098;2023-03-14T15:28:00;2.75;;;1.60;;
63259;SDS011;49390;51.380;0.098;2023-03-14T15:30:28;4.18;;;1.70;;
63259;SDS011;49390;51.380;0.098;2023-03-14T15:32:56;3.47;;;1.60;;
63259;SDS011;49390;51.380;0.098;2023-03-14T15:35:24;8.00;;;1.70;;
63259;SDS011;49390;51.380;0.098;2023-03-14T15:37:52;5.85;;;1.80;;
63259;SDS011;49390;51.380;0.098;2023-03-14T15:40:22;5.03;;;1.70;;
63259;SDS011;49390;51.380;0.098;2023-03-14T15:42:51;5.75;;;1.60;;
63259;SDS011;49390;51.380;0.098;2023-03-14T15:45:19;5.40;;;1.85;;
63259;SDS011;49390;51.380;0.098;2023-03-14T15:47:47;4.30;;;1.73;;
63259;SDS011;49390;51.380;0.098;2023-03-14T15:50:15;2.38;;;1.38;;
63259;SDS011;49390;51.380;0.098;2023-03-14T15:52:43;4.97;;;2.03;;
63259;SDS011;49390;51.380;0.098;2023-03-14T15:55:11;3.70;;;1.50;;
63259;SDS011;49390;51.380;0.098;2023-03-14T15:57:40;5.18;;;1.60;;
63259;SDS011;49390;51.380;0.098;2023-03-14T16:00:11;4.95;;;1.65;;
63259;SDS011;49390;51.380;0.098;2023-03-14T16:02:41;4.47;;;1.60;;
63259;SDS011;49390;51.380;0.098;2023-03-14T16:05:11;4.70;;;1.50;;
63259;SDS011;49390;51.380;0.098;2023-03-14T16:07:40;2.90;;;1.60;;
63259;SDS011;49390;51.380;0.098;2023-03-14T16:10:09;2.92;;;1.70;;
63259;SDS011;49390;51.380;0.098;2023-03-14T16:12:38;6.38;;;1.52;;
63259;SDS011;49390;51.380;0.098;2023-03-14T16:15:07;4.45;;;1.58;;
63259;SDS011;49390;51.380;0.098;2023-03-14T16:17:35;3.53;;;1.80;;
63259;SDS011;49390;51.380;0.098;2023-03-14T16:20:05;3.28;;;1.73;;
63259;SDS011;49390;51.380;0.098;2023-03-14T16:22:34;4.88;;;1.60;;
63259;SDS011;49390;51.380;0.098;2023-03-14T16:25:04;3.03;;;1.60;;
63259;SDS011;49390;51.380;0.098;2023-03-14T16:27:33;4.20;;;1.50;;
63259;SDS011;49390;51.380;0.098;2023-03-14T16:30:01;3.42;;;1.55;;
63259;SDS011;49390;51.380;0.098;2023-03-14T16:32:29;4.75;;;1.90;;
63259;SDS011;49390;51.380;0.098;2023-03-14T16:34:58;4.47;;;1.50;;
63259;SDS011;49390;51.380;0.098;2023-03-14T16:37:28;2.75;;;1.40;;
63259;SDS011;49390;51.380;0.098;2023-03-14T16:39:56;4.22;;;1.92;;
63259;SDS011;49390;51.380;0.098;2023-03-14T16:42:47;2.20;;;1.50;;
63259;SDS011;49390;51.380;0.098;2023-03-14T16:45:36;3.90;;;1.60;;
63259;SDS011;49390;51.380;0.098;2023-03-14T16:48:04;5.50;;;1.88;;
63259;SDS011;49390;51.380;0.098;2023-03-14T16:50:33;3.25;;;1.77;;
63259;SDS011;49390;51.380;0.098;2023-03-14T16:53:01;3.92;;;1.60;;
63259;SDS011;49390;51.380;0.098;2023-03-14T16:55:29;3.97;;;1.70;;
63259;SDS011;49390;51.380;0.098;2023-03-14T16:57:57;4.15;;;1.77;;
63259;SDS011;49390;51.380;0.098;2023-03-14T17:00:25;2.58;;;1.60;;
63259;SDS011;49390;51.380;0.098;2023-03-14T17:02:53;4.03;;;1.80;;
63259;SDS011;49390;51.380;0.098;2023-03-14T17:05:21;5.32;;;1.92;;
63259;SDS011;49390;51.380;0.098;2023-03-14T17:07:49;7.25;;;2.08;;
63259;SDS011;49390;51.380;0.098;2023-03-14T17:10:18;4.38;;;2.30;;
63259;SDS011;49390;51.380;0.098;2023-03-14T17:12:45;8.65;;;2.22;;
63259;SDS011;49390;51.380;0.098;2023-03-14T17:15:13;3.88;;;1.83;;
63259;SDS011;49390;51.380;0.098;2023-03-14T17:17:41;4.10;;;1.80;;
63259;SDS011;49390;51.380;0.098;2023-03-14T17:20:10;4.97;;;1.80;;
63259;SDS011;49390;51.380;0.098;2023-03-14T17:22:38;3.00;;;1.73;;
63259;SDS011;49390;51.380;0.098;2023-03-14T17:25:06;4.80;;;1.70;;
63259;SDS011;49390;51.380;0.098;2023-03-14T17:27:34;4.97;;;1.77;;
63259;SDS011;49390;51.380;0.098;2023-03-14T17:30:03;4.85;;;1.90;;
63259;SDS011;49390;51.380;0.098;2023-03-14T17:32:31;4.32;;;1.90;;
63259;SDS011;49390;51.380;0.098;2023-03-14T17:34:59;4.57;;;2.00;;